sensor_id;sensor_type;location;lat;lon;timestamp;temperature;humidity
10433;DHT22;5263;48.680;9.004;2023-06-10T00:01:51;15.70;99.90
10433;DHT22;5263;48.680;9.004;2023-06-10T00:04:20;15.70;99.90
10433;DHT22;5263;48.680;9.004;2023-06-10T00:06:46;15.50;99.90
10433;DHT22;5263;48.680;9.004;2023-06-10T00:09:15;15.60;99.90
10433;DHT22;5263;48.680;9.004;2023-06-10T00:11:41;15.70;99.90
10433;DHT22;5263;48.680;9.004;2023-06-10T00:14:08;15.50;99.90
10433;DHT22;5263;48.680;9.004;2023-06-10T00:16:33;15.60;99.90
10433;DHT22;5263;48.680;9.004;2023-06-10T00:19:00;15.40;99.90
10433;DHT22;5263;48.680;9.004;2023-06-10T00:21:29;15.40;99.90
10433;DHT22;5263;48.680;9.004;2023-06-10T00:23:55;15.30;99.90
10433;DHT22;5263;48.680;9.004;2023-06-10T00:26:22;15.20;99.90
10433;DHT22;5263;48.680;9.004;2023-06-10T00:28:48;15.00;99.90
10433;DHT22;5263;48.680;9.004;2023-06-10T00:31:14;14.90;99.90
10433;DHT22;5263;48.680;9.004;2023-06-10T00:33:39;15.20;99.90
10433;DHT22;5263;48.680;9.004;2023-06-10T00:36:05;15.00;99.90
10433;DHT22;5263;48.680;9.004;2023-06-10T00:38:31;14.90;99.90
10433;DHT22;5263;48.680;9.004;2023-06-10T00:40:57;14.80;99.90
10433;DHT22;5263;48.680;9.004;2023-06-10T00:43:23;14.90;99.90
10433;DHT22;5263;48.680;9.004;2023-06-10T00:45:49;14.70;99.90
10433;DHT22;5263;48.680;9.004;2023-06-10T00:48:15;14.60;99.90
10433;DHT22;5263;48.680;9.004;2023-06-10T00:50:40;14.50;99.90
10433;DHT22;5263;48.680;9.004;2023-06-10T00:53:06;14.80;99.90
10433;DHT22;5263;48.680;9.004;2023-06-10T00:55:32;14.60;99.90
10433;DHT22;5263;48.680;9.004;2023-06-10T00:57:58;14.50;99.90
10433;DHT22;5263;48.680;9.004;2023-06-10T01:00:25;14.50;99.90
10433;DHT22;5263;48.680;9.004;2023-06-10T01:02:51;14.60;99.90
10433;DHT22;5263;48.680;9.004;2023-06-10T01:05:17;14.50;99.90
10433;DHT22;5263;48.680;9.004;2023-06-10T01:07:50;14.70;99.90
10433;DHT22;5263;48.680;9.004;2023-06-10T01:10:57;14.60;99.90
10433;DHT22;5263;48.680;9.004;2023-06-10T01:13:24;14.50;99.90
10433;DHT22;5263;48.680;9.004;2023-06-10T01:15:57;14.70;99.90
10433;DHT22;5263;48.680;9.004;2023-06-10T01:18:23;14.70;99.90
10433;DHT22;5263;48.680;9.004;2023-06-10T01:20:49;14.50;99.90
10433;DHT22;5263;48.680;9.004;2023-06-10T01:23:15;14.30;99.90
10433;DHT22;5263;48.680;9.004;2023-06-10T01:25:56;14.40;99.90
10433;DHT22;5263;48.680;9.004;2023-06-10T01:28:33;14.20;99.90
10433;DHT22;5263;48.680;9.004;2023-06-10T01:31:14;14.20;99.90
10433;DHT22;5263;48.680;9.004;2023-06-10T01:33:47;14.10;99.90
10433;DHT22;5263;48.680;9.004;2023-06-10T01:36:16;14.30;99.90
10433;DHT22;5263;48.680;9.004;2023-06-10T01:38:44;14.30;99.90
10433;DHT22;5263;48.680;9.004;2023-06-10T01:41:12;14.50;99.90
10433;DHT22;5263;48.680;9.004;2023-06-10T01:43:39;14.20;99.90
10433;DHT22;5263;48.680;9.004;2023-06-10T01:46:05;14.40;99.90
10433;DHT22;5263;48.680;9.004;2023-06-10T01:48:32;14.20;99.90
10433;DHT22;5263;48.680;9.004;2023-06-10T01:50:58;14.30;99.90
10433;DHT22;5263;48.680;9.004;2023-06-10T01:53:24;14.60;99.90
10433;DHT22;5263;48.680;9.004;2023-06-10T01:55:50;14.40;99.90
10433;DHT22;5263;48.680;9.004;2023-06-10T01:58:16;14.20;99.90
10433;DHT22;5263;48.680;9.004;2023-06-10T02:00:42;14.20;99.90
10433;DHT22;5263;48.680;9.004;2023-06-10T02:03:07;14.00;99.90
10433;DHT22;5263;48.680;9.004;2023-06-10T02:05:33;13.90;99.90
10433;DHT22;5263;48.680;9.004;2023-06-10T02:07:58;14.10;99.90
10433;DHT22;5263;48.680;9.004;2023-06-10T02:10:24;13.80;99.90
10433;DHT22;5263;48.680;9.004;2023-06-10T02:12:50;13.90;99.90
10433;DHT22;5263;48.680;9.004;2023-06-10T02:15:16;13.90;99.90
10433;DHT22;5263;48.680;9.004;2023-06-10T02:17:41;13.70;99.90
10433;DHT22;5263;48.680;9.004;2023-06-10T02:20:07;13.90;99.90
10433;DHT22;5263;48.680;9.004;2023-06-10T02:22:37;14.00;99.90
10433;DHT22;5263;48.680;9.004;2023-06-10T02:25:03;14.00;99.90
10433;DHT22;5263;48.680;9.004;2023-06-10T02:27:29;13.90;99.90
10433;DHT22;5263;48.680;9.004;2023-06-10T02:29:56;14.20;99.90
10433;DHT22;5263;48.680;9.004;2023-06-10T02:32:22;13.80;99.90
10433;DHT22;5263;48.680;9.004;2023-06-10T02:34:47;13.60;99.90
10433;DHT22;5263;48.680;9.004;2023-06-10T02:37:15;13.50;99.90
10433;DHT22;5263;48.680;9.004;2023-06-10T02:39:40;13.60;99.90
10433;DHT22;5263;48.680;9.004;2023-06-10T02:42:06;13.70;99.90
10433;DHT22;5263;48.680;9.004;2023-06-10T02:44:32;13.90;99.90
10433;DHT22;5263;48.680;9.004;2023-06-10T02:46:58;13.90;99.90
10433;DHT22;5263;48.680;9.004;2023-06-10T02:49:23;13.80;99.90
10433;DHT22;5263;48.680;9.004;2023-06-10T02:51:50;13.80;99.90
10433;DHT22;5263;48.680;9.004;2023-06-10T02:54:19;13.40;99.90
10433;DHT22;5263;48.680;9.004;2023-06-10T02:56:45;13.20;99.90
10433;DHT22;5263;48.680;9.004;2023-06-10T02:59:11;13.10;99.90
10433;DHT22;5263;48.680;9.004;2023-06-10T03:01:37;13.00;99.90
10433;DHT22;5263;48.680;9.004;2023-06-10T03:04:06;13.00;99.90
10433;DHT22;5263;48.680;9.004;2023-06-10T03:06:31;13.00;99.90
10433;DHT22;5263;48.680;9.004;2023-06-10T03:08:59;12.90;99.90
10433;DHT22;5263;48.680;9.004;2023-06-10T03:11:25;12.80;99.90
10433;DHT22;5263;48.680;9.004;2023-06-10T03:13:51;12.90;99.90
10433;DHT22;5263;48.680;9.004;2023-06-10T03:16:19;12.80;99.90
10433;DHT22;5263;48.680;9.004;2023-06-10T03:18:44;12.80;99.90
10433;DHT22;5263;48.680;9.004;2023-06-10T03:21:10;12.80;99.90
10433;DHT22;5263;48.680;9.004;2023-06-10T03:23:36;12.70;99.90
10433;DHT22;5263;48.680;9.004;2023-06-10T03:26:02;12.70;99.90
10433;DHT22;5263;48.680;9.004;2023-06-10T03:28:30;12.70;99.90
10433;DHT22;5263;48.680;9.004;2023-06-10T03:30:56;12.80;99.90
10433;DHT22;5263;48.680;9.004;2023-06-10T03:33:21;12.80;99.90
10433;DHT22;5263;48.680;9.004;2023-06-10T03:35:47;12.70;99.90
10433;DHT22;5263;48.680;9.004;2023-06-10T03:38:13;12.80;99.90
10433;DHT22;5263;48.680;9.004;2023-06-10T03:40:39;12.70;99.90
10433;DHT22;5263;48.680;9.004;2023-06-10T03:43:04;12.60;99.90
10433;DHT22;5263;48.680;9.004;2023-06-10T03:45:30;12.70;99.90
10433;DHT22;5263;48.680;9.004;2023-06-10T03:47:57;12.80;99.90
10433;DHT22;5263;48.680;9.004;2023-06-10T03:50:23;12.80;99.90
10433;DHT22;5263;48.680;9.004;2023-06-10T03:52:50;12.70;99.90
10433;DHT22;5263;48.680;9.004;2023-06-10T03:55:16;12.70;99.90
10433;DHT22;5263;48.680;9.004;2023-06-10T03:57:42;12.70;99.90
10433;DHT22;5263;48.680;9.004;2023-06-10T04:00:09;12.80;99.90
10433;DHT22;5263;48.680;9.004;2023-06-10T04:02:38;12.70;99.90
10433;DHT22;5263;48.680;9.004;2023-06-10T04:05:14;12.70;99.90
10433;DHT22;5263;48.680;9.004;2023-06-10T04:07:40;12.60;99.90
10433;DHT22;5263;48.680;9.004;2023-06-10T04:10:08;12.70;99.90
10433;DHT22;5263;48.680;9.004;2023-06-10T04:12:34;12.60;99.90
10433;DHT22;5263;48.680;9.004;2023-06-10T04:15:00;12.70;99.90
10433;DHT22;5263;48.680;9.004;2023-06-10T04:17:26;12.80;99.90
10433;DHT22;5263;48.680;9.004;2023-06-10T04:19:52;13.10;99.90
10433;DHT22;5263;48.680;9.004;2023-06-10T04:22:18;13.30;99.90
10433;DHT22;5263;48.680;9.004;2023-06-10T04:24:44;13.30;99.90
10433;DHT22;5263;48.680;9.004;2023-06-10T04:27:09;13.30;99.90
10433;DHT22;5263;48.680;9.004;2023-06-10T04:29:35;13.40;99.90
10433;DHT22;5263;48.680;9.004;2023-06-10T04:32:02;13.50;99.90
10433;DHT22;5263;48.680;9.004;2023-06-10T04:34:28;13.50;99.90
10433;DHT22;5263;48.680;9.004;2023-06-10T04:36:53;13.50;99.90
10433;DHT22;5263;48.680;9.004;2023-06-10T04:39:19;13.50;99.90
10433;DHT22;5263;48.680;9.004;2023-06-10T04:41:45;13.60;99.90
10433;DHT22;5263;48.680;9.004;2023-06-10T04:44:12;13.70;99.90
10433;DHT22;5263;48.680;9.004;2023-06-10T04:46:39;13.90;99.90
10433;DHT22;5263;48.680;9.004;2023-06-10T04:49:04;14.10;99.90
10433;DHT22;5263;48.680;9.004;2023-06-10T04:51:30;14.20;99.90
10433;DHT22;5263;48.680;9.004;2023-06-10T04:53:57;14.20;99.90
10433;DHT22;5263;48.680;9.004;2023-06-10T04:56:23;14.50;99.90
10433;DHT22;5263;48.680;9.004;2023-06-10T04:58:49;14.50;99.90
10433;DHT22;5263;48.680;9.004;2023-06-10T05:01:15;14.70;99.90
10433;DHT22;5263;48.680;9.004;2023-06-10T05:03:41;14.70;99.90
10433;DHT22;5263;48.680;9.004;2023-06-10T05:06:06;14.80;99.90
10433;DHT22;5263;48.680;9.004;2023-06-10T05:08:33;14.90;99.90
10433;DHT22;5263;48.680;9.004;2023-06-10T05:10:58;15.00;99.90
10433;DHT22;5263;48.680;9.004;2023-06-10T05:13:24;15.20;99.90
10433;DHT22;5263;48.680;9.004;2023-06-10T05:15:50;15.20;99.90
10433;DHT22;5263;48.680;9.004;2023-06-10T05:18:15;15.30;99.90
10433;DHT22;5263;48.680;9.004;2023-06-10T05:20:41;15.40;99.90
10433;DHT22;5263;48.680;9.004;2023-06-10T05:23:06;15.50;99.90
10433;DHT22;5263;48.680;9.004;2023-06-10T05:25:32;15.70;99.90
10433;DHT22;5263;48.680;9.004;2023-06-10T05:27:58;15.90;99.90
10433;DHT22;5263;48.680;9.004;2023-06-10T05:30:24;16.10;99.90
10433;DHT22;5263;48.680;9.004;2023-06-10T05:32:51;16.30;99.90
10433;DHT22;5263;48.680;9.004;2023-06-10T05:35:17;16.40;99.90
10433;DHT22;5263;48.680;9.004;2023-06-10T05:37:43;16.50;99.90
10433;DHT22;5263;48.680;9.004;2023-06-10T05:40:09;16.60;99.90
10433;DHT22;5263;48.680;9.004;2023-06-10T05:42:35;16.90;99.90
10433;DHT22;5263;48.680;9.004;2023-06-10T05:45:01;16.90;99.90
10433;DHT22;5263;48.680;9.004;2023-06-10T05:47:27;17.20;99.90
10433;DHT22;5263;48.680;9.004;2023-06-10T05:49:53;17.30;99.90
10433;DHT22;5263;48.680;9.004;2023-06-10T05:52:18;17.50;99.90
10433;DHT22;5263;48.680;9.004;2023-06-10T05:54:44;17.60;99.90
10433;DHT22;5263;48.680;9.004;2023-06-10T05:57:10;17.60;99.90
10433;DHT22;5263;48.680;9.004;2023-06-10T05:59:36;17.80;99.90
10433;DHT22;5263;48.680;9.004;2023-06-10T06:02:01;18.10;99.90
10433;DHT22;5263;48.680;9.004;2023-06-10T06:04:27;18.10;99.90
10433;DHT22;5263;48.680;9.004;2023-06-10T06:06:52;18.30;99.90
10433;DHT22;5263;48.680;9.004;2023-06-10T06:09:18;18.20;99.90
10433;DHT22;5263;48.680;9.004;2023-06-10T06:11:44;18.50;99.90
10433;DHT22;5263;48.680;9.004;2023-06-10T06:14:10;18.50;99.90
10433;DHT22;5263;48.680;9.004;2023-06-10T06:16:35;18.70;99.90
10433;DHT22;5263;48.680;9.004;2023-06-10T06:19:01;18.80;99.90
10433;DHT22;5263;48.680;9.004;2023-06-10T06:21:26;18.90;99.90
10433;DHT22;5263;48.680;9.004;2023-06-10T06:23:52;19.00;99.90
10433;DHT22;5263;48.680;9.004;2023-06-10T06:26:18;19.10;99.90
10433;DHT22;5263;48.680;9.004;2023-06-10T06:28:43;19.30;99.90
10433;DHT22;5263;48.680;9.004;2023-06-10T06:31:09;19.30;99.90
10433;DHT22;5263;48.680;9.004;2023-06-10T06:33:34;19.40;99.90
10433;DHT22;5263;48.680;9.004;2023-06-10T06:36:00;19.60;99.90
10433;DHT22;5263;48.680;9.004;2023-06-10T06:38:26;19.70;99.90
10433;DHT22;5263;48.680;9.004;2023-06-10T06:40:52;19.60;99.90
10433;DHT22;5263;48.680;9.004;2023-06-10T06:43:17;19.60;99.90
10433;DHT22;5263;48.680;9.004;2023-06-10T06:45:44;19.90;99.90
10433;DHT22;5263;48.680;9.004;2023-06-10T06:48:10;20.10;99.90
10433;DHT22;5263;48.680;9.004;2023-06-10T06:50:36;20.10;99.90
10433;DHT22;5263;48.680;9.004;2023-06-10T06:53:02;20.20;99.90
10433;DHT22;5263;48.680;9.004;2023-06-10T06:55:28;20.20;99.90
10433;DHT22;5263;48.680;9.004;2023-06-10T06:57:53;20.30;99.90
10433;DHT22;5263;48.680;9.004;2023-06-10T07:00:19;20.50;99.90
10433;DHT22;5263;48.680;9.004;2023-06-10T07:02:45;20.50;99.90
10433;DHT22;5263;48.680;9.004;2023-06-10T07:05:11;20.60;99.90
10433;DHT22;5263;48.680;9.004;2023-06-10T07:07:36;20.80;99.90
10433;DHT22;5263;48.680;9.004;2023-06-10T07:10:02;20.60;99.90
10433;DHT22;5263;48.680;9.004;2023-06-10T07:12:28;20.80;99.90
10433;DHT22;5263;48.680;9.004;2023-06-10T07:14:53;21.00;99.90
10433;DHT22;5263;48.680;9.004;2023-06-10T07:17:19;21.00;99.90
10433;DHT22;5263;48.680;9.004;2023-06-10T07:19:45;21.30;99.90
10433;DHT22;5263;48.680;9.004;2023-06-10T07:22:11;21.30;99.90
10433;DHT22;5263;48.680;9.004;2023-06-10T07:24:37;21.10;99.90
10433;DHT22;5263;48.680;9.004;2023-06-10T07:27:02;21.10;99.90
10433;DHT22;5263;48.680;9.004;2023-06-10T07:29:28;21.20;99.90
10433;DHT22;5263;48.680;9.004;2023-06-10T07:31:54;21.30;99.90
10433;DHT22;5263;48.680;9.004;2023-06-10T07:34:19;21.10;99.90
10433;DHT22;5263;48.680;9.004;2023-06-10T07:36:45;21.20;99.90
10433;DHT22;5263;48.680;9.004;2023-06-10T07:39:11;21.30;99.90
10433;DHT22;5263;48.680;9.004;2023-06-10T07:41:36;21.40;99.90
10433;DHT22;5263;48.680;9.004;2023-06-10T07:44:02;21.50;99.90
10433;DHT22;5263;48.680;9.004;2023-06-10T07:46:27;21.70;99.90
10433;DHT22;5263;48.680;9.004;2023-06-10T07:48:54;21.60;99.90
10433;DHT22;5263;48.680;9.004;2023-06-10T07:51:20;21.60;99.90
10433;DHT22;5263;48.680;9.004;2023-06-10T07:53:46;21.40;99.90
10433;DHT22;5263;48.680;9.004;2023-06-10T07:56:12;21.70;99.90
10433;DHT22;5263;48.680;9.004;2023-06-10T07:58:38;21.80;99.90
10433;DHT22;5263;48.680;9.004;2023-06-10T08:01:03;22.00;99.90
10433;DHT22;5263;48.680;9.004;2023-06-10T08:03:29;22.00;99.90
10433;DHT22;5263;48.680;9.004;2023-06-10T08:05:55;22.00;99.90
10433;DHT22;5263;48.680;9.004;2023-06-10T08:08:20;22.10;99.90
10433;DHT22;5263;48.680;9.004;2023-06-10T08:10:46;22.30;99.90
10433;DHT22;5263;48.680;9.004;2023-06-10T08:13:12;22.50;99.90
10433;DHT22;5263;48.680;9.004;2023-06-10T08:15:37;22.60;99.90
10433;DHT22;5263;48.680;9.004;2023-06-10T08:18:03;22.50;99.90
10433;DHT22;5263;48.680;9.004;2023-06-10T08:20:29;22.40;99.90
10433;DHT22;5263;48.680;9.004;2023-06-10T08:22:54;22.60;99.90
10433;DHT22;5263;48.680;9.004;2023-06-10T08:25:20;22.60;99.90
10433;DHT22;5263;48.680;9.004;2023-06-10T08:27:47;22.80;99.90
10433;DHT22;5263;48.680;9.004;2023-06-10T08:30:13;22.80;99.90
10433;DHT22;5263;48.680;9.004;2023-06-10T08:32:39;22.60;99.90
10433;DHT22;5263;48.680;9.004;2023-06-10T08:35:05;22.70;99.90
10433;DHT22;5263;48.680;9.004;2023-06-10T08:37:31;22.80;99.90
10433;DHT22;5263;48.680;9.004;2023-06-10T08:39:56;22.80;99.90
10433;DHT22;5263;48.680;9.004;2023-06-10T08:42:34;23.00;99.90
10433;DHT22;5263;48.680;9.004;2023-06-10T08:45:05;23.00;99.90
10433;DHT22;5263;48.680;9.004;2023-06-10T08:47:34;23.20;99.90
10433;DHT22;5263;48.680;9.004;2023-06-10T08:50:04;23.40;99.90
10433;DHT22;5263;48.680;9.004;2023-06-10T08:52:35;23.50;99.90
10433;DHT22;5263;48.680;9.004;2023-06-10T08:55:27;23.50;99.90
10433;DHT22;5263;48.680;9.004;2023-06-10T08:57:53;23.00;99.90
10433;DHT22;5263;48.680;9.004;2023-06-10T09:00:19;23.10;99.90
10433;DHT22;5263;48.680;9.004;2023-06-10T09:02:45;23.20;99.90
10433;DHT22;5263;48.680;9.004;2023-06-10T09:05:12;23.40;99.90
10433;DHT22;5263;48.680;9.004;2023-06-10T09:07:39;23.60;99.90
10433;DHT22;5263;48.680;9.004;2023-06-10T09:10:05;23.80;99.90
10433;DHT22;5263;48.680;9.004;2023-06-10T09:12:33;23.90;99.90
10433;DHT22;5263;48.680;9.004;2023-06-10T09:15:00;23.80;99.90
10433;DHT22;5263;48.680;9.004;2023-06-10T09:17:27;23.80;99.90
10433;DHT22;5263;48.680;9.004;2023-06-10T09:19:53;24.10;99.90
10433;DHT22;5263;48.680;9.004;2023-06-10T09:22:23;24.30;99.90
10433;DHT22;5263;48.680;9.004;2023-06-10T09:24:49;24.20;99.90
10433;DHT22;5263;48.680;9.004;2023-06-10T09:27:15;24.40;99.90
10433;DHT22;5263;48.680;9.004;2023-06-10T09:29:54;24.40;99.90
10433;DHT22;5263;48.680;9.004;2023-06-10T09:32:21;24.30;99.90
10433;DHT22;5263;48.680;9.004;2023-06-10T09:34:47;24.30;99.90
10433;DHT22;5263;48.680;9.004;2023-06-10T09:37:19;24.40;99.90
10433;DHT22;5263;48.680;9.004;2023-06-10T09:39:45;24.60;99.90
10433;DHT22;5263;48.680;9.004;2023-06-10T09:42:25;24.50;99.90
10433;DHT22;5263;48.680;9.004;2023-06-10T09:44:52;24.40;99.90
10433;DHT22;5263;48.680;9.004;2023-06-10T09:47:22;24.40;99.90
10433;DHT22;5263;48.680;9.004;2023-06-10T09:49:48;24.80;99.90
10433;DHT22;5263;48.680;9.004;2023-06-10T09:52:21;25.00;99.90
10433;DHT22;5263;48.680;9.004;2023-06-10T09:54:48;25.40;99.90
10433;DHT22;5263;48.680;9.004;2023-06-10T09:57:13;25.40;99.90
10433;DHT22;5263;48.680;9.004;2023-06-10T09:59:40;25.70;99.90
10433;DHT22;5263;48.680;9.004;2023-06-10T10:02:06;25.70;99.90
10433;DHT22;5263;48.680;9.004;2023-06-10T10:04:35;25.20;99.90
10433;DHT22;5263;48.680;9.004;2023-06-10T10:07:01;25.20;99.90
10433;DHT22;5263;48.680;9.004;2023-06-10T10:09:26;25.60;99.90
10433;DHT22;5263;48.680;9.004;2023-06-10T10:11:52;25.70;99.90
10433;DHT22;5263;48.680;9.004;2023-06-10T10:14:20;25.90;99.90
10433;DHT22;5263;48.680;9.004;2023-06-10T10:16:46;25.80;99.90
10433;DHT22;5263;48.680;9.004;2023-06-10T10:19:20;25.00;98.90
10433;DHT22;5263;48.680;9.004;2023-06-10T10:21:54;25.20;99.30
10433;DHT22;5263;48.680;9.004;2023-06-10T10:24:25;25.70;99.90
10433;DHT22;5263;48.680;9.004;2023-06-10T10:26:56;25.50;98.50
10433;DHT22;5263;48.680;9.004;2023-06-10T10:29:35;25.90;99.90
10433;DHT22;5263;48.680;9.004;2023-06-10T10:32:02;26.80;99.40
10433;DHT22;5263;48.680;9.004;2023-06-10T10:34:50;28.90;96.70
10433;DHT22;5263;48.680;9.004;2023-06-10T10:37:20;30.00;91.90
10433;DHT22;5263;48.680;9.004;2023-06-10T10:39:47;30.70;90.70
10433;DHT22;5263;48.680;9.004;2023-06-10T10:42:13;33.40;85.00
10433;DHT22;5263;48.680;9.004;2023-06-10T10:44:40;32.20;82.90
10433;DHT22;5263;48.680;9.004;2023-06-10T10:47:08;31.40;80.70
10433;DHT22;5263;48.680;9.004;2023-06-10T10:49:35;32.90;75.30
10433;DHT22;5263;48.680;9.004;2023-06-10T10:52:02;30.50;78.40
10433;DHT22;5263;48.680;9.004;2023-06-10T10:54:35;29.70;80.90
10433;DHT22;5263;48.680;9.004;2023-06-10T10:57:28;28.80;82.10
10433;DHT22;5263;48.680;9.004;2023-06-10T10:59:58;27.90;84.60
10433;DHT22;5263;48.680;9.004;2023-06-10T11:02:41;29.00;84.80
10433;DHT22;5263;48.680;9.004;2023-06-10T11:05:15;29.60;79.30
10433;DHT22;5263;48.680;9.004;2023-06-10T11:07:52;31.50;79.70
10433;DHT22;5263;48.680;9.004;2023-06-10T11:10:34;31.40;76.00
10433;DHT22;5263;48.680;9.004;2023-06-10T11:13:09;31.30;75.50
10433;DHT22;5263;48.680;9.004;2023-06-10T11:15:39;31.40;73.50
10433;DHT22;5263;48.680;9.004;2023-06-10T11:18:08;34.20;65.70
10433;DHT22;5263;48.680;9.004;2023-06-10T11:31:27;34.00;57.30
10433;DHT22;5263;48.680;9.004;2023-06-10T11:33:53;34.80;55.90
10433;DHT22;5263;48.680;9.004;2023-06-10T11:36:20;34.90;56.00
10433;DHT22;5263;48.680;9.004;2023-06-10T11:38:46;33.30;58.50
10433;DHT22;5263;48.680;9.004;2023-06-10T11:41:12;31.80;62.90
10433;DHT22;5263;48.680;9.004;2023-06-10T11:43:45;31.60;64.20
10433;DHT22;5263;48.680;9.004;2023-06-10T11:46:11;33.30;61.00
10433;DHT22;5263;48.680;9.004;2023-06-10T11:48:37;34.00;59.80
10433;DHT22;5263;48.680;9.004;2023-06-10T11:51:06;34.90;57.00
10433;DHT22;5263;48.680;9.004;2023-06-10T11:53:33;34.00;56.90
10433;DHT22;5263;48.680;9.004;2023-06-10T11:55:59;33.20;58.50
10433;DHT22;5263;48.680;9.004;2023-06-10T11:58:25;32.40;60.00
10433;DHT22;5263;48.680;9.004;2023-06-10T12:00:52;31.40;61.40
10433;DHT22;5263;48.680;9.004;2023-06-10T12:03:25;30.80;62.20
10433;DHT22;5263;48.680;9.004;2023-06-10T12:06:04;30.10;66.50
10433;DHT22;5263;48.680;9.004;2023-06-10T12:08:30;30.50;66.60
10433;DHT22;5263;48.680;9.004;2023-06-10T12:10:57;31.30;65.60
10433;DHT22;5263;48.680;9.004;2023-06-10T12:13:25;32.10;61.90
10433;DHT22;5263;48.680;9.004;2023-06-10T12:15:50;32.40;59.70
10433;DHT22;5263;48.680;9.004;2023-06-10T12:18:21;33.30;59.10
10433;DHT22;5263;48.680;9.004;2023-06-10T12:20:47;34.00;58.40
10433;DHT22;5263;48.680;9.004;2023-06-10T12:23:14;37.30;52.80
10433;DHT22;5263;48.680;9.004;2023-06-10T12:25:53;37.10;51.20
10433;DHT22;5263;48.680;9.004;2023-06-10T12:28:26;38.00;49.20
10433;DHT22;5263;48.680;9.004;2023-06-10T12:30:52;35.90;50.50
10433;DHT22;5263;48.680;9.004;2023-06-10T12:33:31;32.20;56.80
10433;DHT22;5263;48.680;9.004;2023-06-10T12:35:56;29.80;60.20
10433;DHT22;5263;48.680;9.004;2023-06-10T12:38:26;29.80;66.50
10433;DHT22;5263;48.680;9.004;2023-06-10T12:40:57;31.60;64.40
10433;DHT22;5263;48.680;9.004;2023-06-10T12:43:26;33.60;59.10
10433;DHT22;5263;48.680;9.004;2023-06-10T12:45:52;33.00;58.40
10433;DHT22;5263;48.680;9.004;2023-06-10T12:50:50;30.70;60.90
10433;DHT22;5263;48.680;9.004;2023-06-10T12:53:16;29.60;63.20
10433;DHT22;5263;48.680;9.004;2023-06-10T12:55:42;28.70;65.20
10433;DHT22;5263;48.680;9.004;2023-06-10T12:58:10;27.80;67.90
10433;DHT22;5263;48.680;9.004;2023-06-10T13:00:36;27.60;67.70
10433;DHT22;5263;48.680;9.004;2023-06-10T13:03:03;27.90;69.00
10433;DHT22;5263;48.680;9.004;2023-06-10T13:05:31;29.90;64.90
10433;DHT22;5263;48.680;9.004;2023-06-10T13:07:57;32.60;62.60
10433;DHT22;5263;48.680;9.004;2023-06-10T13:10:23;32.90;58.30
10433;DHT22;5263;48.680;9.004;2023-06-10T13:12:50;35.10;55.40
10433;DHT22;5263;48.680;9.004;2023-06-10T13:15:16;37.70;49.40
10433;DHT22;5263;48.680;9.004;2023-06-10T13:17:43;36.10;49.70
10433;DHT22;5263;48.680;9.004;2023-06-10T13:20:10;33.50;53.40
10433;DHT22;5263;48.680;9.004;2023-06-10T13:22:36;32.60;56.20
10433;DHT22;5263;48.680;9.004;2023-06-10T13:25:05;31.20;58.70
10433;DHT22;5263;48.680;9.004;2023-06-10T13:27:35;30.50;59.80
10433;DHT22;5263;48.680;9.004;2023-06-10T13:30:01;30.10;61.80
10433;DHT22;5263;48.680;9.004;2023-06-10T13:32:26;29.70;61.90
10433;DHT22;5263;48.680;9.004;2023-06-10T13:34:52;29.30;63.00
10433;DHT22;5263;48.680;9.004;2023-06-10T13:37:19;28.60;65.10
10433;DHT22;5263;48.680;9.004;2023-06-10T13:39:45;28.50;65.70
10433;DHT22;5263;48.680;9.004;2023-06-10T13:42:14;29.00;67.00
10433;DHT22;5263;48.680;9.004;2023-06-10T13:44:40;30.30;64.50
10433;DHT22;5263;48.680;9.004;2023-06-10T13:47:06;34.10;57.20
10433;DHT22;5263;48.680;9.004;2023-06-10T13:49:32;34.10;56.40
10433;DHT22;5263;48.680;9.004;2023-06-10T13:51:57;35.10;53.60
10433;DHT22;5263;48.680;9.004;2023-06-10T13:54:23;35.70;51.80
10433;DHT22;5263;48.680;9.004;2023-06-10T13:56:49;34.90;51.50
10433;DHT22;5263;48.680;9.004;2023-06-10T13:59:14;36.10;51.00
10433;DHT22;5263;48.680;9.004;2023-06-10T14:01:40;37.30;48.70
10433;DHT22;5263;48.680;9.004;2023-06-10T14:04:06;38.50;47.40
10433;DHT22;5263;48.680;9.004;2023-06-10T14:06:32;39.20;46.90
10433;DHT22;5263;48.680;9.004;2023-06-10T14:08:59;37.00;47.80
10433;DHT22;5263;48.680;9.004;2023-06-10T14:11:24;34.80;50.30
10433;DHT22;5263;48.680;9.004;2023-06-10T14:13:50;33.80;52.00
10433;DHT22;5263;48.680;9.004;2023-06-10T14:16:16;33.40;52.80
10433;DHT22;5263;48.680;9.004;2023-06-10T14:18:41;32.30;54.50
10433;DHT22;5263;48.680;9.004;2023-06-10T14:21:07;34.00;53.40
10433;DHT22;5263;48.680;9.004;2023-06-10T14:23:32;33.60;53.90
10433;DHT22;5263;48.680;9.004;2023-06-10T14:25:58;31.60;54.80
10433;DHT22;5263;48.680;9.004;2023-06-10T14:28:24;32.40;56.40
10433;DHT22;5263;48.680;9.004;2023-06-10T14:30:52;33.50;53.20
10433;DHT22;5263;48.680;9.004;2023-06-10T14:33:18;34.60;52.40
10433;DHT22;5263;48.680;9.004;2023-06-10T14:35:44;36.30;50.60
10433;DHT22;5263;48.680;9.004;2023-06-10T14:38:09;37.40;47.60
10433;DHT22;5263;48.680;9.004;2023-06-10T14:40:35;37.50;47.70
10433;DHT22;5263;48.680;9.004;2023-06-10T14:43:01;36.90;45.40
10433;DHT22;5263;48.680;9.004;2023-06-10T14:45:29;37.50;47.30
10433;DHT22;5263;48.680;9.004;2023-06-10T14:47:55;38.20;45.50
10433;DHT22;5263;48.680;9.004;2023-06-10T14:50:20;37.90;45.20
10433;DHT22;5263;48.680;9.004;2023-06-10T14:52:46;38.20;43.20
10433;DHT22;5263;48.680;9.004;2023-06-10T14:55:12;37.70;44.70
10433;DHT22;5263;48.680;9.004;2023-06-10T14:57:37;37.40;45.20
10433;DHT22;5263;48.680;9.004;2023-06-10T15:00:03;36.50;45.60
10433;DHT22;5263;48.680;9.004;2023-06-10T15:02:29;35.20;47.00
10433;DHT22;5263;48.680;9.004;2023-06-10T15:04:55;34.30;47.90
10433;DHT22;5263;48.680;9.004;2023-06-10T15:07:20;33.80;49.20
10433;DHT22;5263;48.680;9.004;2023-06-10T15:09:46;33.00;51.20
10433;DHT22;5263;48.680;9.004;2023-06-10T15:12:11;32.90;53.00
10433;DHT22;5263;48.680;9.004;2023-06-10T15:14:37;31.60;53.80
10433;DHT22;5263;48.680;9.004;2023-06-10T15:17:03;31.20;55.40
10433;DHT22;5263;48.680;9.004;2023-06-10T15:19:28;31.10;54.70
10433;DHT22;5263;48.680;9.004;2023-06-10T15:21:54;30.90;54.50
10433;DHT22;5263;48.680;9.004;2023-06-10T15:24:20;29.80;56.10
10433;DHT22;5263;48.680;9.004;2023-06-10T15:26:46;29.80;58.20
10433;DHT22;5263;48.680;9.004;2023-06-10T15:29:11;29.70;57.40
10433;DHT22;5263;48.680;9.004;2023-06-10T15:31:37;29.40;58.00
10433;DHT22;5263;48.680;9.004;2023-06-10T15:34:03;29.10;57.40
10433;DHT22;5263;48.680;9.004;2023-06-10T15:36:30;28.60;59.10
10433;DHT22;5263;48.680;9.004;2023-06-10T15:39:04;28.70;60.10
10433;DHT22;5263;48.680;9.004;2023-06-10T15:41:32;28.20;61.70
10433;DHT22;5263;48.680;9.004;2023-06-10T15:43:57;28.20;62.10
10433;DHT22;5263;48.680;9.004;2023-06-10T15:46:26;28.20;63.00
10433;DHT22;5263;48.680;9.004;2023-06-10T15:48:51;28.10;62.70
10433;DHT22;5263;48.680;9.004;2023-06-10T15:51:19;28.50;63.40
10433;DHT22;5263;48.680;9.004;2023-06-10T15:53:44;27.90;64.00
10433;DHT22;5263;48.680;9.004;2023-06-10T15:56:11;27.20;65.50
10433;DHT22;5263;48.680;9.004;2023-06-10T15:58:37;27.20;66.20